Observations for LAWRENCE MUNICIPAL, MA (LWM)

KLWM 142354Z 25014KT 10SM CLR M04/M15 A2986 RMK AO2 SLP114 T10441150 11017 21044 51039  
KLWM 142254Z 28007KT 10SM CLR M04/M16 A2983 RMK AO2 SLP103 T10391161
KLWM 142154Z 29007KT 10SM CLR M03/M17 A2980 RMK AO2 SLP092 T10331167
KLWM 142054Z 30012G21KT 10SM CLR M03/M17 A2975 RMK AO2 SLP074 T10281172 53034   
KLWM 141954Z 30013G21KT 10SM CLR M02/M16 A2970 RMK AO2 SLP060 T10171161 
KLWM 141854Z 29012G20KT 10SM CLR M02/M16 A2967 RMK AO2 SLP047 T10171161 
KLWM 141754Z 29012G20KT 10SM CLR M02/M15 A2964 RMK AO2 SLP040 T10171150 11017 21050 51005   
KLWM 141654Z 29007G16KT 10SM CLR M03/M13 A2964 RMK AO2 SLP037 T10281128 
KLWM 141454Z 28007KT 10SM BKN075 M04/M12 A2963 RMK AO2 SLP034 T10391122 53001   
KLWM 141354Z 28004KT 10SM OVC100 M05/M12 A2961 RMK AO2 SLP029 T10501117 
KLWM 141254Z 27005KT 10SM OVC070 M05/M12 A2962 RMK AO2 SLP031 T10501117 
KLWM 141154Z 25009KT 10SM BKN060 OVC075 M05/M12 A2962 RMK AO2 SLP033 T10501117 11050 21050 53011
KLWM 141054Z AUTO 23009KT 10SM OVC060 M05/M12 A2961 RMK AO2 SLP028 T10501122
KLWM 140954Z AUTO 25005KT 10SM OVC075 M05/M12 A2959 RMK AO2 SLP022 T10501122
KLWM 140854Z AUTO 24010KT 10SM FEW065 BKN095 OVC110 M05/M13 A2959 RMK AO2 SLP022 T10501128 50009
KLWM 140754Z AUTO 25012KT 10SM OVC100 M05/M13 A2960 RMK AO2 SLP025 T10501128
KLWM 140654Z AUTO 24013KT 10SM OVC110 M05/M12 A2958 RMK AO2 SLP019 T10501122
KLWM 140554Z AUTO 26010G20KT 10SM CLR M05/M12 A2956 RMK AO2 SLP012 T10501122 11050 21056 50018  
KLWM 140454Z AUTO 26013G18KT 10SM CLR M05/M12 A2957 RMK AO2 SLP014 T10501122 400171056  
KLWM 140354Z AUTO 24014KT 10SM CLR M05/M12 A2953 RMK AO2 SLP999 T10501122   
KLWM 140254Z 26012G19KT 10SM CLR M05/M12 A2951 RMK AO2 SLP995 T10501122 51027   
KLWM 140154Z 24012G24KT 10SM CLR M06/M12 A2950 RMK AO2 SLP990 T10561122 
KLWM 140054Z 27015G24KT 10SM CLR M06/M13 A2947 RMK AO2 SLP979 T10561128 
KLWM 132354Z 25015G20KT 10SM CLR M06/M13 A2943 RMK AO2 SLP967 T10561128 11039 21056 51029